Time;durP1;ratioP1;P1;durP2;ratioP2;P2;SDS_P1;SDS_P2;PMS_P1;PMS_P2;Temp;Humidity;BMP_temperature;BMP_pressure;BME280_temperature;BME280_humidity;BME280_pressure;Samples;Min_cycle;Max_cycle;Signal;HPM_P1;HPM_P2
2022/02/19 00:01:11;;;;;;;;;;;;;;;-0.52;68.02;97058.16;109837;1250;59767;-70
2022/02/19 00:03:41;;;;;;;14.90;7.90;;;;;;;-0.57;67.52;97058.48;109878;1250;59637;-67
2022/02/19 00:06:10;;;;;;;11.30;7.60;;;;;;;-0.61;68.29;97058.59;109807;1251;71633;-71
2022/02/19 00:08:39;;;;;;;12.90;8.60;;;;;;;-0.59;68.47;97073.77;109748;1250;68431;-74
2022/02/19 00:11:09;;;;;;;13.70;8.00;;;;;;;-0.52;68.63;97075.95;109804;1250;68562;-71
2022/02/19 00:13:39;;;;;;;13.40;8.00;;;;;;;-0.44;68.46;97077.56;109835;1250;59720;-70
2022/02/19 00:16:08;;;;;;;12.10;7.80;;;;;;;-0.38;68.43;97081.83;109770;1250;59631;-70
2022/02/19 00:18:38;;;;;;;16.30;7.60;;;;;;;-0.34;68.10;97089.70;109724;1253;70792;-73
2022/02/19 00:21:08;;;;;;;11.20;7.60;;;;;;;-0.28;67.88;97090.20;109686;1251;68098;-71
2022/02/19 00:23:38;;;;;;;11.10;7.00;;;;;;;-0.21;67.93;97087.21;109697;1250;67545;-67
2022/02/19 00:26:09;;;;;;;11.20;6.60;;;;;;;-0.12;67.35;97098.54;109705;1251;59736;-72
2022/02/19 00:28:39;;;;;;;9.40;6.70;;;;;;;-0.02;67.07;97103.14;109716;1250;60132;-72
2022/02/19 00:31:09;;;;;;;7.60;4.70;;;;;;;0.12;66.19;97093.92;109709;1251;71155;-71
2022/02/19 00:33:39;;;;;;;7.00;5.60;;;;;;;0.30;65.41;97075.23;109722;1250;67805;-73
2022/02/19 00:36:08;;;;;;;12.20;7.60;;;;;;;0.47;65.06;97063.13;109829;1250;67802;-69
2022/02/19 00:38:38;;;;;;;12.10;8.00;;;;;;;0.55;65.94;97063.33;109669;1251;59758;-74
2022/02/19 00:41:10;;;;;;;13.40;8.30;;;;;;;0.61;65.53;97078.90;109695;1251;59749;-71
2022/02/19 00:43:41;;;;;;;11.70;7.30;;;;;;;0.64;65.83;97075.34;110019;1250;70605;-71
2022/02/19 00:46:12;;;;;;;10.60;6.00;;;;;;;0.68;65.54;97069.54;109735;1250;67815;-71
2022/02/19 00:48:41;;;;;;;13.30;8.00;;;;;;;0.71;65.12;97066.50;109975;1250;68583;-70
2022/02/19 00:51:18;;;;;;;14.70;8.10;;;;;;;0.74;65.06;97063.14;109713;1250;59755;-71
2022/02/19 00:53:48;;;;;;;14.70;7.60;;;;;;;0.72;65.60;97055.66;109676;1252;59771;-71
2022/02/19 00:56:18;;;;;;;;;;;;;;;0.66;65.76;97036.66;109667;1252;71579;-72
2022/02/19 00:58:48;;;;;;;11.80;6.90;;;;;;;0.60;65.51;97032.46;109831;1251;68639;-69
2022/02/19 01:01:22;;;;;;;10.50;6.70;;;;;;;0.54;65.13;97032.69;109514;1252;68491;-69
2022/02/19 01:04:01;;;;;;;9.10;5.80;;;;;;;0.48;64.67;97013.21;109784;1251;59777;-69
2022/02/19 01:06:32;;;;;;;10.30;6.30;;;;;;;0.43;65.15;97007.89;109746;1251;59655;-68
2022/02/19 01:09:02;;;;;;;9.60;5.70;;;;;;;0.37;65.62;97011.22;109808;1251;71612;-70
2022/02/19 01:11:32;;;;;;;;;;;;;;;0.35;65.65;97006.65;109783;1250;68570;-71
2022/02/19 01:14:02;;;;;;;9.80;5.30;;;;;;;0.33;65.23;97010.20;109628;1251;67631;-70
2022/02/19 01:16:32;;;;;;;10.30;6.00;;;;;;;0.27;65.19;97016.08;109674;1251;59699;-72
2022/02/19 01:19:03;;;;;;;9.30;6.20;;;;;;;0.19;66.22;97019.29;109852;1251;59774;-72
2022/02/19 01:21:33;;;;;;;10.20;6.30;;;;;;;0.15;65.76;97009.52;109740;1251;70883;-70
2022/02/19 01:24:04;;;;;;;;;;;;;;;0.10;66.44;97003.00;109757;1250;68602;-71
2022/02/19 01:26:34;;;;;;;10.50;5.70;;;;;;;0.09;66.01;97001.51;109658;1251;68493;-71
2022/02/19 01:29:05;;;;;;;10.40;6.10;;;;;;;0.08;66.57;96992.47;109672;1253;59656;-69
2022/02/19 01:31:34;;;;;;;8.60;5.50;;;;;;;0.05;66.56;96982.81;109640;1252;59644;-70
2022/02/19 01:34:05;;;;;;;12.00;6.10;;;;;;;0.08;65.61;96982.19;109725;1250;71523;-74
2022/02/19 01:36:38;;;;;;;10.90;6.00;;;;;;;0.04;66.15;96988.82;109627;1251;68115;-70
2022/02/19 01:39:09;;;;;;;11.10;5.90;;;;;;;-0.01;66.30;96981.48;109736;1251;69380;-72
2022/02/19 01:41:39;;;;;;;10.20;6.30;;;;;;;-0.08;66.45;96963.89;109535;1251;59813;-71
2022/02/19 01:44:13;;;;;;;7.90;5.00;;;;;;;-0.12;66.13;96969.53;109696;1252;59675;-71
2022/02/19 01:46:43;;;;;;;12.80;7.30;;;;;;;-0.17;66.38;96971.45;109594;1251;70749;-71
2022/02/19 01:49:13;;;;;;;12.00;7.30;;;;;;;-0.24;67.67;96975.83;109678;1251;67666;-71
2022/02/19 01:51:44;;;;;;;11.60;7.50;;;;;;;-0.30;67.94;96964.23;109992;1250;69774;-73
2022/02/19 01:54:14;;;;;;;9.70;6.90;;;;;;;-0.28;67.94;96950.95;109527;1254;59777;-70
2022/02/19 01:57:16;;;;;;;9.90;6.20;;;;;;;-0.25;67.81;96951.89;109301;1251;59662;-71
2022/02/19 02:00:07;;;;;;;8.00;5.60;;;;;;;-0.23;66.86;96949.94;109471;1251;72330;-68
2022/02/19 02:02:47;;;;;;;8.70;5.90;;;;;;;-0.27;67.15;96943.38;109680;1251;68165;-67
2022/02/19 02:05:42;;;;;;;8.50;5.60;;;;;;;-0.29;66.41;96950.48;109714;1251;70183;-70
2022/02/19 02:08:13;;;;;;;10.80;6.40;;;;;;;-0.35;67.21;96950.73;109640;1251;59826;-73
2022/02/19 02:10:47;;;;;;;8.70;5.70;;;;;;;-0.39;67.99;96958.92;109792;1250;59633;-65
2022/02/19 02:13:27;;;;;;;11.20;5.90;;;;;;;-0.44;67.33;96961.13;109586;1252;71810;-66
2022/02/19 02:15:57;;;;;;;;;;;;;;;-0.49;68.16;96953.63;109535;1254;67913;-65
2022/02/19 02:18:45;;;;;;;10.50;6.10;;;;;;;-0.53;68.20;96951.52;109735;1251;69129;-69
2022/02/19 02:21:15;;;;;;;5.50;4.50;;;;;;;-0.53;68.20;96952.02;109882;1251;60066;-72
2022/02/19 02:23:45;;;;;;;9.20;5.90;;;;;;;-0.51;67.42;96942.05;109816;1251;59707;-74
2022/02/19 02:26:18;;;;;;;9.30;5.50;;;;;;;-0.50;67.70;96937.71;109733;1250;71499;-70
2022/02/19 02:28:50;;;;;;;7.30;5.20;;;;;;;-0.46;68.27;96935.35;109815;1251;68590;-72
2022/02/19 02:31:20;;;;;;;;;;;;;;;-0.43;67.89;96937.31;109751;1251;69423;-71
2022/02/19 02:33:52;;;;;;;8.90;4.60;;;;;;;-0.43;67.30;96947.59;109622;1250;59710;-66
2022/02/19 02:36:22;;;;;;;8.50;5.30;;;;;;;-0.39;67.60;96944.19;109767;1251;59754;-72
2022/02/19 02:38:54;;;;;;;7.60;4.30;;;;;;;-0.35;67.71;96947.78;109893;1251;71018;-70
2022/02/19 02:41:26;;;;;;;9.40;5.40;;;;;;;-0.24;66.98;96945.35;109518;1252;68079;-70
2022/02/19 02:43:58;;;;;;;12.00;4.30;;;;;;;-0.12;66.92;96949.34;108975;1251;1034341;-73
2022/02/19 02:46:29;;;;;;;11.00;5.70;;;;;;;0.01;66.82;96955.89;109659;1251;59779;-72
2022/02/19 02:49:01;;;;;;;6.20;4.10;;;;;;;0.08;66.32;96955.98;109798;1251;59757;-71
2022/02/19 02:51:32;;;;;;;9.90;4.40;;;;;;;0.14;66.04;96950.23;109561;1251;70796;-71
2022/02/19 02:54:02;;;;;;;6.40;4.30;;;;;;;0.22;65.42;96946.32;109591;1251;68816;-71
2022/02/19 02:56:35;;;;;;;7.90;4.30;;;;;;;0.26;65.42;96950.81;109358;1254;68733;-71
2022/02/19 02:59:05;;;;;;;6.60;4.10;;;;;;;0.35;64.97;96953.35;109624;1253;59795;-72
2022/02/19 03:01:36;;;;;;;6.40;4.20;;;;;;;0.38;64.85;96955.63;109637;1251;59773;-71
2022/02/19 03:04:07;;;;;;;11.00;4.70;;;;;;;0.39;65.05;96962.48;109759;1251;71467;-71
2022/02/19 03:06:37;;;;;;;;;;;;;;;0.34;65.24;96964.02;109850;1251;68572;-73
2022/02/19 03:09:08;;;;;;;10.20;5.00;;;;;;;0.38;64.71;96964.88;109669;1251;68658;-66
2022/02/19 03:11:38;;;;;;;8.00;4.00;;;;;;;0.39;65.07;96969.48;109830;1249;59760;-71
2022/02/19 03:14:10;;;;;;;6.80;3.30;;;;;;;0.41;64.79;96967.52;109743;1251;59712;-72
2022/02/19 03:16:41;;;;;;;6.60;4.60;;;;;;;0.41;64.75;96954.48;109543;1251;71124;-73
2022/02/19 03:19:12;;;;;;;7.60;4.10;;;;;;;0.41;64.63;96948.13;109593;1251;68640;-70
2022/02/19 03:21:42;;;;;;;6.10;3.90;;;;;;;0.43;64.74;96937.27;109618;1254;69571;-72
2022/02/19 03:24:12;;;;;;;7.70;4.60;;;;;;;0.41;64.81;96922.60;109781;1251;59727;-73
2022/02/19 03:26:43;;;;;;;10.70;5.00;;;;;;;0.36;65.00;96915.95;109677;1251;59735;-71
2022/02/19 03:29:17;;;;;;;5.50;3.80;;;;;;;0.30;64.90;96924.05;109684;1253;71108;-71
2022/02/19 03:31:48;;;;;;;7.10;3.40;;;;;;;0.25;65.11;96936.27;109733;1251;68399;-71
2022/02/19 03:34:23;;;;;;;6.10;3.50;;;;;;;0.31;64.87;96938.45;109633;1251;68801;-72
2022/02/19 03:36:54;;;;;;;6.30;3.70;;;;;;;0.48;64.39;96935.54;109844;1251;59621;-71
2022/02/19 03:39:24;;;;;;;8.80;4.50;;;;;;;0.57;64.01;96941.52;109783;1251;60127;-73
2022/02/19 03:41:55;;;;;;;7.60;4.30;;;;;;;0.60;64.01;96935.89;109581;1251;70745;-73
2022/02/19 03:44:25;;;;;;;8.00;4.50;;;;;;;0.60;64.12;96933.34;109637;1251;67613;-73
2022/02/19 03:47:03;;;;;;;7.30;2.90;;;;;;;0.58;63.88;96929.97;109716;1251;69436;-71
2022/02/19 03:49:43;;;;;;;7.30;4.20;;;;;;;0.60;63.79;96925.95;109470;1251;59712;-74
2022/02/19 03:52:15;;;;;;;3.90;3.30;;;;;;;0.60;63.69;96926.48;109665;1251;59663;-70
2022/02/19 03:54:45;;;;;;;4.60;3.40;;;;;;;0.63;63.73;96918.65;109885;1250;71637;-74
2022/02/19 03:57:15;;;;;;;;;;;;;;;0.64;63.53;96922.04;110056;1250;67650;-70
2022/02/19 03:59:45;;;;;;;;;;;;;;;0.68;63.43;96920.83;109723;1250;68655;-73
2022/02/19 04:02:16;;;;;;;7.60;3.30;;;;;;;0.74;63.23;96918.52;109791;1250;59740;-73
2022/02/19 04:04:47;;;;;;;6.40;3.00;;;;;;;0.74;63.32;96917.13;109712;1250;59752;-72
2022/02/19 04:07:18;;;;;;;4.60;3.10;;;;;;;0.78;63.12;96912.16;109574;1251;71479;-71
2022/02/19 04:09:56;;;;;;;5.10;3.40;;;;;;;0.79;63.07;96911.78;109704;1251;68195;-67
2022/02/19 04:12:28;;;;;;;5.30;3.60;;;;;;;0.81;63.05;96911.88;109818;1251;69383;-69
2022/02/19 04:14:59;;;;;;;7.20;4.20;;;;;;;0.76;63.24;96907.30;109588;1252;59697;-71
2022/02/19 04:17:30;;;;;;;4.50;3.50;;;;;;;0.66;63.49;96907.87;109653;1251;59779;-72
2022/02/19 04:20:00;;;;;;;6.40;3.60;;;;;;;0.58;63.61;96906.84;109812;1251;71581;-73
2022/02/19 04:22:31;;;;;;;4.90;3.40;;;;;;;0.51;63.46;96905.05;109724;1251;68480;-71
2022/02/19 04:25:04;;;;;;;5.70;3.70;;;;;;;0.53;63.62;96906.02;109802;1250;69365;-72
2022/02/19 04:27:36;;;;;;;3.80;3.30;;;;;;;0.53;63.78;96904.48;109747;1250;59780;-63
2022/02/19 04:30:07;;;;;;;6.90;3.70;;;;;;;0.51;63.74;96904.02;109784;1251;59736;-72
2022/02/19 04:32:39;;;;;;;5.40;3.10;;;;;;;0.52;63.64;96909.15;109813;1250;71754;-72
2022/02/19 04:35:10;;;;;;;5.60;3.60;;;;;;;0.52;63.83;96912.77;109572;1250;67733;-72
2022/02/19 04:37:40;;;;;;;5.80;3.30;;;;;;;0.47;63.76;96921.52;109622;1251;69559;-71
2022/02/19 04:40:11;;;;;;;5.20;3.00;;;;;;;0.39;64.07;96919.95;109683;1250;59761;-72
2022/02/19 04:42:42;;;;;;;4.90;3.50;;;;;;;0.31;64.06;96912.39;109795;1251;59733;-71
2022/02/19 04:45:22;;;;;;;4.80;2.70;;;;;;;0.32;63.76;96914.92;109761;1251;71459;-73
2022/02/19 04:47:59;;;;;;;7.40;3.80;;;;;;;0.32;64.30;96912.52;109808;1251;67799;-70
2022/02/19 04:50:29;;;;;;;9.80;5.70;;;;;;;0.31;64.18;96905.69;109627;1251;69344;-72
2022/02/19 04:52:59;;;;;;;12.40;8.10;;;;;;;0.29;64.81;96908.02;109691;1251;59722;-72
2022/02/19 04:55:34;;;;;;;10.90;6.70;;;;;;;0.27;64.42;96903.64;109664;1251;59672;-73
2022/02/19 04:58:11;;;;;;;8.10;4.80;;;;;;;0.30;64.11;96906.58;109590;1251;70767;-71
2022/02/19 05:00:45;;;;;;;7.20;4.60;;;;;;;0.33;64.03;96904.77;109645;1251;68694;-64
2022/02/19 05:03:25;;;;;;;7.50;4.80;;;;;;;0.33;64.24;96905.63;109725;1251;69250;-63
2022/02/19 05:06:18;;;;;;;8.20;4.10;;;;;;;0.31;64.37;96910.66;109594;1251;59745;-71
2022/02/19 05:08:52;;;;;;;6.70;4.20;;;;;;;0.27;64.52;96918.04;109752;1251;59672;-71
2022/02/19 05:11:24;;;;;;;7.00;4.10;;;;;;;0.21;64.93;96914.13;109732;1250;70640;-73
2022/02/19 05:13:54;;;;;;;8.00;4.00;;;;;;;0.17;65.05;96916.37;109729;1250;67866;-71
2022/02/19 05:16:24;;;;;;;7.70;4.10;;;;;;;0.10;65.04;96916.83;109676;1251;68475;-73
2022/02/19 05:19:01;;;;;;;8.80;4.40;;;;;;;0.02;65.51;96919.52;109603;1251;59758;-70
2022/02/19 05:21:34;;;;;;;9.00;4.40;;;;;;;-0.05;65.65;96920.29;109807;1251;60085;-74
2022/02/19 05:24:04;;;;;;;6.90;4.20;;;;;;;-0.10;65.69;96920.83;109788;1250;71557;-71
2022/02/19 05:26:42;;;;;;;8.30;4.80;;;;;;;-0.16;66.07;96924.48;109685;1250;69737;-71
2022/02/19 05:29:14;;;;;;;6.50;4.50;;;;;;;-0.25;66.96;96925.48;109537;1253;70190;-67
2022/02/19 05:31:44;;;;;;;10.30;4.40;;;;;;;-0.31;67.23;96923.85;109591;1251;59696;-67
2022/02/19 05:34:34;;;;;;;9.50;4.80;;;;;;;-0.35;67.05;96922.45;109786;1249;59678;-72
2022/02/19 05:37:06;;;;;;;5.00;3.60;;;;;;;-0.36;67.21;96930.02;109722;1250;69831;-71
2022/02/19 05:39:40;;;;;;;10.20;5.20;;;;;;;-0.35;66.22;96936.34;109740;1250;68675;-69
2022/02/19 05:42:12;;;;;;;7.40;3.80;;;;;;;-0.34;66.52;96940.92;109668;1251;69460;-70
2022/02/19 05:44:42;;;;;;;11.30;4.40;;;;;;;-0.33;66.54;96940.70;109693;1251;60174;-70
2022/02/19 05:47:19;;;;;;;6.20;3.70;;;;;;;-0.33;67.01;96951.16;109749;1251;59751;-70
2022/02/19 05:50:13;;;;;;;8.00;4.40;;;;;;;-0.32;67.19;96953.02;109644;1251;70748;-70
2022/02/19 05:52:57;;;;;;;8.20;4.30;;;;;;;-0.28;66.68;96965.01;109584;1251;68101;-71
2022/02/19 05:55:35;;;;;;;6.70;4.30;;;;;;;-0.22;66.74;96969.07;109594;1251;69518;-73
2022/02/19 05:58:07;;;;;;;4.90;3.80;;;;;;;-0.17;66.84;96972.13;109665;1251;59701;-70
2022/02/19 06:01:01;;;;;;;10.30;5.30;;;;;;;-0.09;66.92;96970.62;109683;1250;59714;-71
2022/02/19 06:03:32;;;;;;;8.40;4.90;;;;;;;0.04;66.67;96968.77;109632;1253;70011;-74
2022/02/19 06:06:02;;;;;;;11.20;6.40;;;;;;;0.15;66.33;96968.52;109630;1252;67752;-72
2022/02/19 06:08:32;;;;;;;12.00;7.10;;;;;;;0.25;65.64;96970.55;109711;1251;69424;-69
2022/02/19 06:11:01;;;;;;;9.20;5.40;;;;;;;0.36;65.19;96972.00;109698;1251;59695;-67
2022/02/19 06:13:35;;;;;;;11.60;8.70;;;;;;;0.47;65.05;96971.73;109640;1250;59695;-68
2022/02/19 06:16:04;;;;;;;23.70;13.10;;;;;;;0.56;65.51;96972.27;109778;1251;71602;-70
2022/02/19 06:18:51;;;;;;;18.40;11.10;;;;;;;0.62;65.19;96971.15;109757;1251;68162;-71
2022/02/19 06:21:20;;;;;;;42.70;26.90;;;;;;;0.68;64.74;96964.57;109657;1251;69457;-71
2022/02/19 06:23:49;;;;;;;41.10;24.20;;;;;;;0.72;65.11;96967.83;109473;1251;59729;-71
2022/02/19 06:26:20;;;;;;;39.50;21.50;;;;;;;0.78;64.93;96968.80;109809;1251;60117;-69
2022/02/19 06:29:02;;;;;;;32.60;17.50;;;;;;;0.84;65.10;96971.80;109664;1251;71709;-69
2022/02/19 06:31:32;;;;;;;24.00;14.20;;;;;;;0.93;64.81;96978.98;109465;1252;68641;-69
2022/02/19 06:34:02;;;;;;;17.10;10.60;;;;;;;1.05;64.45;96979.16;109546;1251;69418;-70
2022/02/19 06:36:33;;;;;;;14.60;7.30;;;;;;;1.20;63.64;96979.88;109798;1251;59711;-71
2022/02/19 06:39:06;;;;;;;14.70;11.20;;;;;;;1.47;63.68;96975.48;109666;1250;59623;-68
2022/02/19 06:41:35;;;;;;;15.80;10.70;;;;;;;1.95;63.09;96971.61;109571;1251;71647;-67
2022/02/19 06:44:15;;;;;;;26.70;17.30;;;;;;;2.67;62.49;96971.34;109669;1251;68988;-65
2022/02/19 06:46:45;;;;;;;;;;;;;;;3.40;61.44;96971.68;109506;1251;68873;-66
2022/02/19 06:49:14;;;;;;;45.70;25.50;;;;;;;4.00;58.72;96968.21;109669;1251;59751;-62
2022/02/19 06:51:46;;;;;;;54.90;33.10;;;;;;;4.33;60.29;96969.17;109696;1250;59751;-65
2022/02/19 06:54:15;;;;;;;66.10;40.00;;;;;;;4.63;60.25;96970.96;109798;1251;71702;-65
2022/02/19 06:56:46;;;;;;;44.90;29.10;;;;;;;4.94;57.65;96968.00;109961;1248;68615;-69
2022/02/19 06:59:15;;;;;;;48.20;30.00;;;;;;;5.34;57.53;96969.15;110064;1249;69097;-73
2022/02/19 07:01:45;;;;;;;43.50;25.70;;;;;;;5.81;55.65;96969.95;109829;1250;59759;-70
2022/02/19 07:04:15;;;;;;;31.30;18.40;;;;;;;6.33;54.80;96970.63;109646;1251;59734;-71
2022/02/19 07:06:53;;;;;;;29.80;17.70;;;;;;;7.04;56.98;96975.27;109860;1250;71687;-70
2022/02/19 07:09:25;;;;;;;25.40;16.10;;;;;;;7.75;53.00;96971.67;109687;1251;68672;-73
2022/02/19 07:11:56;;;;;;;19.10;12.20;;;;;;;8.37;54.36;96966.14;109892;1250;69459;-72
2022/02/19 07:14:26;;;;;;;21.30;15.10;;;;;;;8.73;46.59;96968.65;109851;1249;59700;-68
2022/02/19 07:17:07;;;;;;;17.20;10.30;;;;;;;8.85;44.77;96968.34;109953;1250;59644;-72
2022/02/19 07:19:37;;;;;;;19.60;12.80;;;;;;;9.31;44.93;96974.86;109926;1249;70570;-70
2022/02/19 07:22:12;;;;;;;21.60;15.20;;;;;;;9.80;43.06;96969.90;109925;1249;68007;-70
2022/02/19 07:24:42;;;;;;;17.80;11.90;;;;;;;10.13;44.15;96965.95;109890;1250;68487;-72
2022/02/19 07:27:15;;;;;;;13.80;10.10;;;;;;;10.56;43.05;96967.09;109718;1251;59790;-65
2022/02/19 07:29:45;;;;;;;9.40;5.60;;;;;;;10.67;38.59;96962.09;109630;1251;59701;-70
2022/02/19 07:32:16;;;;;;;9.50;6.30;;;;;;;10.76;38.93;96961.30;109763;1250;70774;-68
2022/02/19 07:34:47;;;;;;;10.30;7.40;;;;;;;11.29;41.54;96969.42;109724;1251;68745;-69
2022/02/19 07:37:17;;;;;;;7.60;5.80;;;;;;;11.80;41.25;96970.34;109970;1250;69159;-68
2022/02/19 07:39:46;;;;;;;7.30;5.00;;;;;;;12.36;42.15;96973.42;109793;1250;59752;-71
2022/02/19 07:42:16;;;;;;;6.70;4.50;;;;;;;12.66;38.16;96975.86;109719;1250;59712;-71
2022/02/19 07:45:21;;;;;;;8.20;5.10;;;;;;;12.29;33.07;96973.52;109434;1253;70835;-70
2022/02/19 07:48:12;;;;;;;7.80;4.60;;;;;;;11.56;34.58;96983.55;109898;1250;68682;-70
2022/02/19 07:59:52;;;;;;;6.70;3.80;;;;;;;13.75;32.12;96990.95;109628;1250;72118;-73
2022/02/19 08:02:21;;;;;;;6.50;3.30;;;;;;;13.98;31.32;96983.18;109678;1250;67966;-65
2022/02/19 08:04:51;;;;;;;6.00;3.20;;;;;;;14.34;30.80;96982.10;109802;1250;68956;-66
2022/02/19 08:07:21;;;;;;;6.30;3.60;;;;;;;14.21;29.45;96986.30;109851;1250;59784;-78
2022/02/19 08:09:50;;;;;;;5.30;3.70;;;;;;;13.56;30.50;96994.06;109671;1250;59737;-74
2022/02/19 08:12:19;;;;;;;7.60;3.70;;;;;;;13.62;30.48;96992.96;109872;1250;71572;-69
2022/02/19 08:14:49;;;;;;;4.90;2.90;;;;;;;14.37;29.79;96988.40;109807;1250;68655;-71
2022/02/19 08:17:19;;;;;;;5.10;3.40;;;;;;;14.45;29.39;96994.22;109828;1251;68904;-75
2022/02/19 08:19:49;;;;;;;5.10;3.30;;;;;;;13.82;28.83;96999.16;109643;1251;60042;-73
2022/02/19 08:22:18;;;;;;;5.60;3.30;;;;;;;13.30;30.24;97003.55;109830;1250;59646;-71
2022/02/19 08:24:47;;;;;;;5.00;3.70;;;;;;;13.20;30.45;97010.91;109709;1249;70834;-74
2022/02/19 08:27:17;;;;;;;;;;;;;;;13.24;30.74;97011.17;109737;1251;68603;-73
2022/02/19 08:29:47;;;;;;;5.10;3.20;;;;;;;14.17;30.00;97002.58;109892;1250;69814;-73
2022/02/19 08:32:16;;;;;;;8.80;3.50;;;;;;;14.76;28.89;97003.69;109765;1250;59754;-73
2022/02/19 08:34:45;;;;;;;6.30;3.70;;;;;;;14.77;28.48;97007.38;109853;1250;60017;-65
2022/02/19 08:37:15;;;;;;;5.90;3.50;;;;;;;14.99;28.25;96999.58;109742;1250;70816;-72
2022/02/19 08:39:44;;;;;;;6.20;3.50;;;;;;;14.87;28.11;96989.30;109847;1250;68616;-69
2022/02/19 08:42:14;;;;;;;4.90;3.50;;;;;;;14.02;29.43;96999.28;110051;1250;68631;-69
2022/02/19 08:44:44;;;;;;;6.20;3.60;;;;;;;13.59;30.13;97002.89;110022;1250;59726;-72
2022/02/19 08:47:13;;;;;;;6.40;4.30;;;;;;;13.16;30.74;97002.20;109843;1249;59633;-71
2022/02/19 08:49:43;;;;;;;6.90;4.00;;;;;;;12.77;31.63;97004.95;110067;1250;70928;-74
2022/02/19 08:52:12;;;;;;;5.90;3.70;;;;;;;12.38;32.39;97005.05;109926;1249;68631;-64
2022/02/19 08:54:42;;;;;;;6.40;3.60;;;;;;;12.37;32.41;97003.92;109769;1250;69406;-62
2022/02/19 08:57:12;;;;;;;6.10;3.80;;;;;;;12.24;32.63;97005.06;109869;1250;59749;-67
2022/02/19 08:59:41;;;;;;;5.50;3.40;;;;;;;12.25;32.64;97012.98;109888;1249;59618;-64
2022/02/19 09:02:11;;;;;;;6.60;3.40;;;;;;;12.14;32.83;97012.33;109840;1250;72088;-64
2022/02/19 09:04:41;;;;;;;6.20;3.20;;;;;;;11.95;33.12;97008.59;109867;1249;68739;-66
2022/02/19 09:07:13;;;;;;;5.10;3.70;;;;;;;11.71;33.42;97014.73;109739;1251;69580;-64
2022/02/19 09:09:47;;;;;;;6.20;4.00;;;;;;;11.33;33.73;97019.12;109889;1250;59694;-65
2022/02/19 09:12:16;;;;;;;5.40;3.20;;;;;;;11.15;34.54;97024.20;109799;1249;59627;-63
2022/02/19 09:14:46;;;;;;;6.70;4.10;;;;;;;11.08;34.76;97026.39;110000;1249;71487;-63
2022/02/19 09:17:16;;;;;;;4.40;2.30;;;;;;;11.01;35.07;97020.52;109903;1250;68418;-63
2022/02/19 09:19:45;;;;;;;3.30;2.60;;;;;;;11.00;35.35;97028.59;109797;1250;69456;-66
2022/02/19 09:22:15;;;;;;;7.70;4.10;;;;;;;11.03;35.58;97033.23;110004;1249;59704;-64
2022/02/19 09:24:47;;;;;;;5.50;2.90;;;;;;;10.99;35.89;97035.86;109804;1250;59680;-66
2022/02/19 09:27:17;;;;;;;6.00;3.60;;;;;;;10.96;36.18;97037.27;109716;1251;70617;-66
2022/02/19 09:29:46;;;;;;;5.80;3.20;;;;;;;10.94;36.13;97038.52;110018;1248;68603;-67
2022/02/19 09:32:15;;;;;;;5.20;3.30;;;;;;;10.93;35.96;97043.13;110063;1249;69708;-67
2022/02/19 09:34:45;;;;;;;8.40;4.50;;;;;;;10.93;35.70;97041.73;109946;1250;59738;-63
2022/02/19 09:37:15;;;;;;;5.90;4.30;;;;;;;10.91;35.72;97045.88;110037;1249;59757;-66
2022/02/19 09:39:44;;;;;;;4.80;3.20;;;;;;;10.72;35.45;97048.46;109978;1249;71679;-65
2022/02/19 09:42:14;;;;;;;7.00;3.40;;;;;;;10.67;35.86;97053.20;109860;1250;68511;-65
2022/02/19 09:44:43;;;;;;;9.30;5.10;;;;;;;10.63;36.58;97059.95;110010;1249;69636;-64
2022/02/19 09:47:13;;;;;;;;;;;;;;;10.62;36.73;97065.61;109974;1250;59693;-65
2022/02/19 09:49:42;;;;;;;6.70;4.40;;;;;;;10.62;37.45;97071.74;110076;1250;59715;-66
2022/02/19 09:52:11;;;;;;;13.10;8.90;;;;;;;10.60;37.49;97072.06;110034;1249;71555;-64
2022/02/19 09:54:40;;;;;;;16.80;12.30;;;;;;;10.51;39.01;97073.98;109724;1250;68850;-65
2022/02/19 09:57:10;;;;;;;18.10;12.40;;;;;;;10.41;39.64;97079.64;109600;1250;70056;-64
2022/02/19 09:59:40;;;;;;;17.20;12.30;;;;;;;10.31;40.01;97077.97;109806;1250;59774;-64
2022/02/19 10:02:09;;;;;;;22.10;13.50;;;;;;;10.16;40.42;97075.45;109822;1250;59689;-66
2022/02/19 10:04:44;;;;;;;12.70;8.50;;;;;;;9.91;41.10;97075.08;110062;1249;71945;-65
2022/02/19 10:07:16;;;;;;;12.80;9.60;;;;;;;9.77;40.94;97076.65;109987;1249;68583;-65
2022/02/19 10:09:47;;;;;;;16.50;11.70;;;;;;;9.49;42.29;97074.67;109903;1248;69384;-64
2022/02/19 10:12:17;;;;;;;17.00;9.80;;;;;;;9.33;42.08;97077.95;109942;1250;59711;-63
2022/02/19 10:14:46;;;;;;;;;;;;;;;9.17;43.28;97077.73;109806;1248;59697;-64
2022/02/19 10:17:18;;;;;;;10.30;7.60;;;;;;;9.08;42.92;97081.70;109796;1250;72213;-67
2022/02/19 10:19:59;;;;;;;11.50;8.80;;;;;;;9.10;42.78;97082.23;109893;1250;67931;-65
2022/02/19 10:22:35;;;;;;;11.20;7.50;;;;;;;9.09;42.74;97085.25;109852;1250;69582;-64
2022/02/19 10:25:07;;;;;;;13.90;9.00;;;;;;;9.04;43.29;97081.97;110064;1250;59679;-64
2022/02/19 10:27:45;;;;;;;13.10;9.10;;;;;;;8.99;43.13;97080.43;110054;1249;59732;-64
2022/02/19 10:30:17;;;;;;;12.90;8.70;;;;;;;8.99;43.29;97075.59;110028;1249;70705;-63
2022/02/19 10:32:47;;;;;;;11.00;7.60;;;;;;;8.94;43.54;97070.50;110058;1249;68584;-64
2022/02/19 10:35:18;;;;;;;11.30;8.30;;;;;;;8.98;43.45;97070.44;110059;1249;69527;-63
2022/02/19 10:37:49;;;;;;;12.10;8.10;;;;;;;9.00;43.47;97069.58;110044;1249;59760;-66
2022/02/19 10:40:27;;;;;;;10.80;7.00;;;;;;;8.98;43.89;97076.86;109803;1250;59745;-65
2022/02/19 10:42:58;;;;;;;13.00;9.10;;;;;;;9.00;43.76;97083.98;109662;1250;72016;-63
2022/02/19 10:45:28;;;;;;;32.10;16.30;;;;;;;9.02;43.61;97088.72;109756;1250;68615;-63
2022/02/19 10:48:18;;;;;;;16.00;9.70;;;;;;;9.02;43.78;97092.58;109671;1251;68624;-63
2022/02/19 10:50:48;;;;;;;15.30;10.20;;;;;;;9.01;43.39;97090.23;109830;1250;59805;-64
2022/02/19 10:53:26;;;;;;;11.70;8.90;;;;;;;8.78;43.47;97095.47;109547;1250;59680;-62
2022/02/19 10:55:56;;;;;;;15.20;10.30;;;;;;;8.75;43.15;97099.66;109723;1250;71546;-64
2022/02/19 10:58:26;;;;;;;15.40;11.10;;;;;;;8.72;43.02;97106.89;109857;1250;67807;-64
2022/02/19 11:00:55;;;;;;;13.40;9.00;;;;;;;8.59;43.44;97113.47;109751;1250;69464;-63
2022/02/19 11:03:26;;;;;;;17.50;8.20;;;;;;;8.51;43.58;97117.52;109746;1250;59688;-62
2022/02/19 11:05:57;;;;;;;12.80;8.60;;;;;;;8.34;44.07;97114.33;109811;1249;59748;-65
2022/02/19 11:08:27;;;;;;;12.90;8.00;;;;;;;8.27;44.30;97116.00;109812;1250;71574;-64
2022/02/19 11:10:56;;;;;;;11.50;7.70;;;;;;;8.22;44.18;97116.20;109865;1250;67032;-62
2022/02/19 11:13:25;;;;;;;10.50;7.50;;;;;;;8.18;44.42;97123.19;109843;1250;69483;-65
2022/02/19 11:15:55;;;;;;;15.60;10.80;;;;;;;8.11;45.01;97121.04;109859;1250;59689;-62
2022/02/19 11:18:26;;;;;;;21.60;18.10;;;;;;;7.91;45.52;97124.49;109691;1251;59697;-62
2022/02/19 11:20:55;;;;;;;19.60;11.70;;;;;;;7.75;45.89;97129.04;109807;1250;71590;-64
2022/02/19 11:23:25;;;;;;;15.40;10.40;;;;;;;7.71;46.19;97132.61;109880;1250;69303;-64
2022/02/19 11:25:57;;;;;;;17.20;12.00;;;;;;;7.73;45.48;97135.09;109669;1251;68452;-65
2022/02/19 11:28:36;;;;;;;24.20;14.60;;;;;;;7.76;45.57;97135.75;109684;1250;59789;-64
2022/02/19 11:31:08;;;;;;;16.30;11.40;;;;;;;7.75;46.21;97139.46;109859;1250;59688;-66
2022/02/19 11:33:39;;;;;;;15.30;10.70;;;;;;;7.69;46.18;97154.42;109869;1250;71781;-65
2022/02/19 11:36:10;;;;;;;41.20;26.00;;;;;;;7.70;46.14;97160.59;109796;1250;69301;-65
2022/02/19 11:38:53;;;;;;;19.80;13.70;;;;;;;7.62;46.46;97160.20;109647;1251;69591;-64
2022/02/19 11:41:40;;;;;;;17.90;12.10;;;;;;;7.59;46.31;97155.52;109597;1251;59748;-64
2022/02/19 11:44:15;;;;;;;14.80;9.70;;;;;;;7.64;46.15;97159.73;109867;1250;59761;-62
2022/02/19 11:46:44;;;;;;;20.80;12.30;;;;;;;7.71;46.16;97162.30;110035;1250;70770;-65
2022/02/19 11:49:20;;;;;;;16.70;11.30;;;;;;;7.76;45.81;97162.98;109730;1250;69315;-63
2022/02/19 11:52:01;;;;;;;17.20;11.70;;;;;;;7.79;45.62;97165.05;109808;1248;69705;-61
2022/02/19 11:54:50;;;;;;;16.60;11.80;;;;;;;7.82;45.46;97167.10;109772;1250;59839;-64
2022/02/19 11:57:24;;;;;;;16.70;11.80;;;;;;;7.84;45.45;97165.05;109839;1250;59692;-64
2022/02/19 11:59:53;;;;;;;22.10;14.40;;;;;;;7.87;45.26;97166.77;109784;1250;70756;-63